Time;durP1;ratioP1;P1;durP2;ratioP2;P2;SDS_P1;SDS_P2;PMS_P1;PMS_P2;Temp;Humidity;BMP_temperature;BMP_pressure;BME280_temperature;BME280_humidity;BME280_pressure;Samples;Min_cycle;Max_cycle;Signal;HPM_P1;HPM_P2
2022/07/09 00:00:59;;;;;;;8.35;5.10;;;;;;;;;;4876701;29;20735;-61
2022/07/09 00:03:24;;;;;;;8.50;5.10;;;;;;;;;;4892533;29;20032;-61
2022/07/09 00:05:49;;;;;;;10.85;5.57;;;;;;;;;;4877994;29;20388;-61
2022/07/09 00:08:15;;;;;;;10.88;5.40;;;;;;;;;;4885501;29;20029;-60
2022/07/09 00:10:40;;;;;;;8.30;5.40;;;;;;;;;;4879102;29;20041;-61
2022/07/09 00:13:06;;;;;;;13.68;5.57;;;;;;;;;;4890301;29;20033;-60
2022/07/09 00:15:31;;;;;;;8.50;5.32;;;;;;;;;;4880431;29;20028;-61
2022/07/09 00:17:57;;;;;;;8.02;5.80;;;;;;;;;;4877499;29;20066;-61
2022/07/09 00:20:23;;;;;;;11.45;5.70;;;;;;;;;;4878781;29;20453;-60
2022/07/09 00:22:48;;;;;;;9.45;5.60;;;;;;;;;;4877427;29;20036;-59
2022/07/09 00:25:14;;;;;;;8.70;5.68;;;;;;;;;;4884292;29;20044;-62
2022/07/09 00:27:39;;;;;;;8.68;5.53;;;;;;;;;;4878372;29;20112;-62
2022/07/09 00:30:05;;;;;;;9.32;5.35;;;;;;;;;;4878937;29;20134;-62
2022/07/09 00:32:30;;;;;;;8.95;5.32;;;;;;;;;;4867852;29;20121;-62
2022/07/09 00:34:56;;;;;;;10.23;5.20;;;;;;;;;;4878639;29;20652;-61
2022/07/09 00:37:21;;;;;;;6.90;4.95;;;;;;;;;;4879447;29;20025;-61
2022/07/09 00:39:46;;;;;;;9.02;5.40;;;;;;;;;;4878763;29;20045;-62
2022/07/09 00:42:12;;;;;;;11.40;5.80;;;;;;;;;;4877745;29;20040;-61
2022/07/09 00:44:38;;;;;;;8.77;5.95;;;;;;;;;;4878942;29;20434;-63
2022/07/09 00:47:06;;;;;;;7.97;6.10;;;;;;;;;;4878089;29;20183;-61
2022/07/09 00:49:36;;;;;;;8.88;6.10;;;;;;;;;;4879492;29;20138;-61
2022/07/09 00:52:02;;;;;;;8.05;6.15;;;;;;;;;;4875275;29;20048;-61
2022/07/09 00:54:27;;;;;;;11.43;6.93;;;;;;;;;;4878807;29;20051;-60
2022/07/09 00:56:53;;;;;;;11.10;7.47;;;;;;;;;;4882677;29;20036;-60
2022/07/09 00:59:20;;;;;;;9.32;6.63;;;;;;;;;;4879977;29;20510;-60
2022/07/09 01:01:46;;;;;;;13.55;7.57;;;;;;;;;;4889817;29;20033;-61
2022/07/09 01:04:12;;;;;;;9.20;6.93;;;;;;;;;;4878852;29;20438;-61
2022/07/09 01:06:37;;;;;;;9.60;6.72;;;;;;;;;;4878344;29;20037;-63
2022/07/09 01:09:04;;;;;;;10.90;7.03;;;;;;;;;;4878832;29;20112;-61
2022/07/09 01:11:30;;;;;;;9.50;7.32;;;;;;;;;;4877506;29;20386;-62
2022/07/09 01:13:55;;;;;;;11.68;6.72;;;;;;;;;;4877413;29;20413;-62
2022/07/09 01:16:22;;;;;;;9.95;6.70;;;;;;;;;;4890225;29;20033;-61
2022/07/09 01:18:47;;;;;;;11.68;6.70;;;;;;;;;;4879906;29;20131;-61
2022/07/09 01:21:14;;;;;;;9.18;6.45;;;;;;;;;;4861326;29;20132;-61
2022/07/09 01:23:39;;;;;;;10.60;6.70;;;;;;;;;;4880695;29;20095;-62
2022/07/09 01:26:05;;;;;;;10.05;6.60;;;;;;;;;;4898067;29;20441;-61
2022/07/09 01:28:31;;;;;;;9.75;6.45;;;;;;;;;;4882972;29;20037;-61
2022/07/09 01:30:56;;;;;;;8.55;6.72;;;;;;;;;;4877140;29;20050;-61
2022/07/09 01:33:22;;;;;;;10.93;6.68;;;;;;;;;;4889944;29;20032;-61
2022/07/09 01:35:47;;;;;;;10.65;6.63;;;;;;;;;;4876249;29;20032;-61
2022/07/09 01:38:12;;;;;;;13.35;6.60;;;;;;;;;;4878165;29;20037;-62
2022/07/09 01:40:38;;;;;;;12.80;6.88;;;;;;;;;;4877917;29;20066;-62
2022/07/09 01:43:03;;;;;;;9.15;6.90;;;;;;;;;;4877739;29;20051;-61
2022/07/09 01:45:29;;;;;;;10.40;7.18;;;;;;;;;;4874840;29;20033;-61
2022/07/09 01:47:54;;;;;;;11.30;7.68;;;;;;;;;;4877908;29;20489;-61
2022/07/09 01:50:20;;;;;;;12.52;7.57;;;;;;;;;;4876990;29;20049;-62
2022/07/09 01:52:45;;;;;;;12.38;7.97;;;;;;;;;;4876542;29;20060;-61
2022/07/09 01:55:11;;;;;;;11.13;7.88;;;;;;;;;;4892860;29;20065;-61
2022/07/09 01:57:36;;;;;;;11.93;7.60;;;;;;;;;;4887083;29;20410;-61
2022/07/09 02:00:04;;;;;;;14.90;8.27;;;;;;;;;;4875573;29;20657;-61
2022/07/09 02:02:29;;;;;;;15.57;9.05;;;;;;;;;;4876702;29;20045;-61
2022/07/09 02:04:55;;;;;;;14.07;9.07;;;;;;;;;;4896137;29;20056;-60
2022/07/09 02:07:20;;;;;;;13.32;8.77;;;;;;;;;;4889689;29;20029;-60
2022/07/09 02:09:46;;;;;;;13.70;8.27;;;;;;;;;;4879834;29;20792;-61
2022/07/09 02:12:11;;;;;;;11.63;8.32;;;;;;;;;;4877703;29;20379;-60
2022/07/09 02:14:37;;;;;;;12.88;7.88;;;;;;;;;;4877775;29;20048;-61
2022/07/09 02:17:03;;;;;;;13.93;7.82;;;;;;;;;;4877205;29;20313;-62
2022/07/09 02:19:28;;;;;;;10.38;7.57;;;;;;;;;;4873539;29;20044;-62
2022/07/09 02:21:53;;;;;;;13.35;8.50;;;;;;;;;;4877268;29;20037;-62
2022/07/09 02:24:20;;;;;;;12.05;7.93;;;;;;;;;;4875845;29;20608;-60
2022/07/09 02:26:45;;;;;;;16.65;9.27;;;;;;;;;;4876309;29;20542;-62
2022/07/09 02:29:10;;;;;;;16.92;9.20;;;;;;;;;;4875786;29;20037;-61
2022/07/09 02:31:36;;;;;;;16.88;9.43;;;;;;;;;;4875198;29;20108;-60
2022/07/09 02:34:01;;;;;;;15.88;9.60;;;;;;;;;;4877175;29;20029;-61
2022/07/09 02:36:27;;;;;;;13.88;9.48;;;;;;;;;;4895525;29;20474;-60
2022/07/09 02:38:52;;;;;;;15.45;9.60;;;;;;;;;;4877513;29;20380;-61
2022/07/09 02:41:17;;;;;;;16.98;9.77;;;;;;;;;;4878436;29;20048;-61
2022/07/09 02:43:43;;;;;;;16.52;9.55;;;;;;;;;;4875221;29;20045;-62
2022/07/09 02:46:11;;;;;;;18.30;10.20;;;;;;;;;;4877027;29;20501;-61
2022/07/09 02:48:37;;;;;;;13.93;9.88;;;;;;;;;;4876608;29;20109;-61
2022/07/09 02:51:03;;;;;;;14.68;9.88;;;;;;;;;;4877096;29;20028;-61
2022/07/09 02:53:29;;;;;;;14.65;9.95;;;;;;;;;;4879959;29;20044;-61
2022/07/09 02:55:54;;;;;;;17.02;10.13;;;;;;;;;;4881795;29;20044;-60
2022/07/09 02:58:19;;;;;;;14.98;10.15;;;;;;;;;;4887308;29;20116;-61
2022/07/09 03:00:45;;;;;;;13.70;10.35;;;;;;;;;;4877453;29;20467;-62
2022/07/09 03:03:10;;;;;;;16.27;9.85;;;;;;;;;;4877769;29;20040;-60
2022/07/09 03:05:36;;;;;;;17.60;10.68;;;;;;;;;;4878107;29;20037;-60
2022/07/09 03:08:01;;;;;;;16.00;9.85;;;;;;;;;;4877148;29;20033;-60
2022/07/09 03:10:27;;;;;;;15.25;9.90;;;;;;;;;;4871607;29;20456;-62
2022/07/09 03:12:53;;;;;;;15.82;10.02;;;;;;;;;;4876071;29;20116;-61
2022/07/09 03:15:18;;;;;;;15.73;9.38;;;;;;;;;;4879832;29;20413;-61
2022/07/09 03:17:45;;;;;;;17.42;9.75;;;;;;;;;;4883473;29;20393;-62
2022/07/09 03:20:10;;;;;;;15.50;9.27;;;;;;;;;;4882598;29;20032;-61
2022/07/09 03:22:36;;;;;;;15.05;9.10;;;;;;;;;;4882021;29;20446;-61
2022/07/09 03:25:03;;;;;;;12.55;8.82;;;;;;;;;;4865691;29;20029;-62
2022/07/09 03:27:28;;;;;;;13.07;9.35;;;;;;;;;;4880914;29;20039;-61
2022/07/09 03:29:54;;;;;;;13.38;9.27;;;;;;;;;;4882486;29;20036;-60
2022/07/09 03:32:19;;;;;;;13.10;8.77;;;;;;;;;;4882619;29;20422;-60
2022/07/09 03:34:45;;;;;;;15.45;9.20;;;;;;;;;;4883161;29;20029;-61
2022/07/09 03:37:10;;;;;;;20.50;9.30;;;;;;;;;;4894172;29;20148;-60
2022/07/09 03:39:35;;;;;;;13.88;8.95;;;;;;;;;;4882459;29;20036;-60
2022/07/09 03:42:01;;;;;;;12.27;8.90;;;;;;;;;;4893822;29;20052;-62
2022/07/09 03:44:26;;;;;;;15.52;9.25;;;;;;;;;;4883188;29;20035;-60
2022/07/09 03:46:52;;;;;;;12.48;8.90;;;;;;;;;;4889946;29;20474;-61
2022/07/09 03:49:17;;;;;;;16.17;9.18;;;;;;;;;;4865996;29;20116;-61
2022/07/09 03:51:44;;;;;;;18.83;8.98;;;;;;;;;;4884359;29;20548;-61
2022/07/09 03:54:09;;;;;;;13.48;9.15;;;;;;;;;;4865628;29;20036;-61
2022/07/09 03:56:35;;;;;;;14.23;8.95;;;;;;;;;;4885438;29;20044;-61
2022/07/09 03:59:00;;;;;;;16.27;9.25;;;;;;;;;;4882110;29;20036;-61
2022/07/09 04:01:26;;;;;;;16.90;8.88;;;;;;;;;;4879954;29;20102;-61
2022/07/09 04:03:51;;;;;;;17.08;9.32;;;;;;;;;;4874715;29;20521;-62
2022/07/09 04:06:17;;;;;;;16.33;8.70;;;;;;;;;;4880740;29;20386;-61
2022/07/09 04:08:42;;;;;;;14.35;8.95;;;;;;;;;;4883420;29;20139;-61
2022/07/09 04:11:07;;;;;;;14.00;9.05;;;;;;;;;;4890210;29;20689;-61
2022/07/09 04:13:33;;;;;;;15.32;8.95;;;;;;;;;;4902593;29;20044;-61
2022/07/09 04:15:58;;;;;;;16.55;8.55;;;;;;;;;;4880857;29;20033;-61
2022/07/09 04:18:24;;;;;;;16.13;8.85;;;;;;;;;;4881962;29;20040;-62
2022/07/09 04:20:49;;;;;;;13.85;8.70;;;;;;;;;;4881299;29;20049;-61
2022/07/09 04:23:14;;;;;;;16.60;9.10;;;;;;;;;;4890523;29;20037;-61
2022/07/09 04:25:40;;;;;;;18.83;9.20;;;;;;;;;;4892024;29;20036;-60
2022/07/09 04:28:05;;;;;;;15.82;9.00;;;;;;;;;;4879759;29;20080;-60
2022/07/09 04:30:31;;;;;;;14.00;8.25;;;;;;;;;;4879779;29;20120;-62
2022/07/09 04:32:56;;;;;;;14.27;8.20;;;;;;;;;;4881115;29;20478;-62
2022/07/09 04:35:22;;;;;;;14.43;8.43;;;;;;;;;;4889863;29;20033;-60
2022/07/09 04:37:48;;;;;;;14.48;8.55;;;;;;;;;;4878936;29;20116;-61
2022/07/09 04:40:13;;;;;;;15.80;8.40;;;;;;;;;;4879116;29;20405;-61
2022/07/09 04:42:38;;;;;;;14.90;8.15;;;;;;;;;;4880011;29;20029;-61
2022/07/09 04:45:04;;;;;;;15.40;8.73;;;;;;;;;;4880004;29;20034;-60
2022/07/09 04:47:30;;;;;;;12.32;8.80;;;;;;;;;;4862028;29;20518;-61
2022/07/09 04:49:55;;;;;;;11.57;8.52;;;;;;;;;;4876334;29;20422;-61
2022/07/09 04:52:21;;;;;;;14.80;8.55;;;;;;;;;;4878225;29;20127;-61
2022/07/09 04:54:47;;;;;;;15.88;8.57;;;;;;;;;;4878223;29;20069;-61
2022/07/09 04:57:13;;;;;;;11.73;8.52;;;;;;;;;;4878712;29;20067;-61
2022/07/09 04:59:39;;;;;;;15.90;8.82;;;;;;;;;;4890237;29;20049;-61
2022/07/09 05:02:05;;;;;;;13.60;8.45;;;;;;;;;;4878922;29;20418;-61
2022/07/09 05:04:30;;;;;;;15.50;7.63;;;;;;;;;;4885907;29;20056;-61
2022/07/09 05:06:56;;;;;;;12.10;8.02;;;;;;;;;;4876514;29;20056;-61
2022/07/09 05:09:22;;;;;;;13.45;7.35;;;;;;;;;;4880027;29;20575;-61
2022/07/09 05:11:47;;;;;;;13.48;8.18;;;;;;;;;;4878064;29;20033;-61
2022/07/09 05:14:13;;;;;;;12.55;7.32;;;;;;;;;;4878344;29;20093;-61
2022/07/09 05:16:44;;;;;;;13.00;7.95;;;;;;;;;;4876898;29;20104;-60
2022/07/09 05:19:09;;;;;;;;;;;;;;;;;;4878374;29;20492;-60
2022/07/09 05:21:36;;;;;;;11.05;7.60;;;;;;;;;;4894150;29;19915;-61
2022/07/09 05:24:01;;;;;;;13.63;7.82;;;;;;;;;;4889440;29;20466;-61
2022/07/09 05:26:29;;;;;;;12.52;7.38;;;;;;;;;;4885874;29;20480;-61
2022/07/09 05:28:55;;;;;;;15.32;7.15;;;;;;;;;;4876820;29;20044;-63
2022/07/09 05:31:20;;;;;;;10.00;7.15;;;;;;;;;;4877155;29;20032;-61
2022/07/09 05:33:47;;;;;;;12.93;7.03;;;;;;;;;;4877537;29;20064;-61
2022/07/09 05:36:12;;;;;;;14.32;7.03;;;;;;;;;;4878008;29;20041;-62
2022/07/09 05:38:38;;;;;;;9.52;6.45;;;;;;;;;;4898234;29;20091;-61
2022/07/09 05:41:04;;;;;;;10.75;7.00;;;;;;;;;;4892056;29;20426;-61
2022/07/09 05:43:29;;;;;;;12.55;7.45;;;;;;;;;;4887697;29;20040;-60
2022/07/09 05:45:55;;;;;;;10.82;6.53;;;;;;;;;;4878992;29;20148;-62
2022/07/09 05:48:20;;;;;;;13.32;6.20;;;;;;;;;;4883390;29;20033;-61
2022/07/09 05:50:45;;;;;;;10.93;6.00;;;;;;;;;;4862620;29;20029;-61
2022/07/09 05:53:11;;;;;;;12.40;6.97;;;;;;;;;;4884960;29;20549;-60
2022/07/09 05:55:36;;;;;;;14.73;6.93;;;;;;;;;;4897010;29;20045;-60
2022/07/09 05:58:02;;;;;;;11.32;6.28;;;;;;;;;;4896073;29;20028;-60
2022/07/09 06:00:27;;;;;;;8.88;6.10;;;;;;;;;;4888704;29;20147;-60
2022/07/09 06:02:52;;;;;;;11.30;5.95;;;;;;;;;;4893012;29;20032;-60
2022/07/09 06:05:19;;;;;;;12.20;6.07;;;;;;;;;;4896013;29;20032;-61
2022/07/09 06:07:45;;;;;;;9.93;5.72;;;;;;;;;;4896049;29;20116;-66
2022/07/09 06:10:13;;;;;;;14.23;6.15;;;;;;;;;;4896813;29;20036;-66
2022/07/09 06:12:39;;;;;;;10.52;5.57;;;;;;;;;;4896670;29;20049;-68
2022/07/09 06:15:05;;;;;;;12.13;6.00;;;;;;;;;;4895348;29;20481;-67
2022/07/09 06:17:30;;;;;;;9.38;5.88;;;;;;;;;;4879991;29;20051;-66
2022/07/09 06:19:55;;;;;;;8.45;5.07;;;;;;;;;;4894973;29;20032;-70
2022/07/09 06:22:21;;;;;;;10.90;5.47;;;;;;;;;;4894610;29;20040;-68
2022/07/09 06:24:46;;;;;;;9.38;5.15;;;;;;;;;;4895153;29;20438;-66
2022/07/09 06:27:12;;;;;;;8.43;5.13;;;;;;;;;;4877074;29;20052;-67
2022/07/09 06:29:37;;;;;;;9.95;5.60;;;;;;;;;;4885758;29;20542;-67
2022/07/09 06:32:03;;;;;;;9.68;5.18;;;;;;;;;;4894637;29;20526;-68
2022/07/09 06:34:28;;;;;;;8.80;5.55;;;;;;;;;;4897665;29;20119;-65
2022/07/09 06:36:54;;;;;;;8.50;5.32;;;;;;;;;;4879529;29;20093;-66
2022/07/09 06:42:07;;;;;;;9.10;4.90;;;;;;;;;;4875497;29;20039;-67
2022/07/09 06:44:35;;;;;;;7.22;4.75;;;;;;;;;;4878687;29;20376;-67
2022/07/09 06:47:01;;;;;;;7.45;4.30;;;;;;;;;;4876327;29;20086;-66
2022/07/09 06:49:27;;;;;;;7.75;4.80;;;;;;;;;;4880764;29;20037;-68
2022/07/09 06:51:53;;;;;;;8.02;4.93;;;;;;;;;;4875867;29;20116;-68
2022/07/09 06:54:18;;;;;;;7.03;5.07;;;;;;;;;;4892956;29;20351;-67
2022/07/09 06:56:44;;;;;;;9.27;4.70;;;;;;;;;;4895826;29;20037;-68
2022/07/09 06:59:09;;;;;;;6.82;3.90;;;;;;;;;;4894064;29;20028;-68
2022/07/09 07:01:35;;;;;;;7.53;3.65;;;;;;;;;;4893616;29;20391;-67
2022/07/09 07:04:00;;;;;;;7.20;3.70;;;;;;;;;;4894764;29;20036;-71
2022/07/09 07:06:25;;;;;;;6.45;3.90;;;;;;;;;;4896240;29;20157;-67
2022/07/09 07:08:51;;;;;;;6.75;3.90;;;;;;;;;;4883440;29;20029;-67
2022/07/09 07:11:16;;;;;;;5.82;3.53;;;;;;;;;;4881914;29;20036;-67
2022/07/09 07:13:44;;;;;;;7.45;3.95;;;;;;;;;;4882062;29;20041;-67
2022/07/09 07:16:10;;;;;;;5.28;3.60;;;;;;;;;;4895064;29;20064;-68
2022/07/09 07:18:35;;;;;;;7.22;4.32;;;;;;;;;;4879856;29;20064;-66
2022/07/09 07:21:00;;;;;;;7.13;3.60;;;;;;;;;;4889298;29;20173;-68
2022/07/09 07:23:26;;;;;;;6.82;3.40;;;;;;;;;;4891735;29;20489;-66
2022/07/09 07:25:51;;;;;;;5.05;3.15;;;;;;;;;;4884361;29;20061;-67
2022/07/09 07:28:17;;;;;;;7.40;2.90;;;;;;;;;;4886158;29;20091;-66
2022/07/09 07:30:42;;;;;;;5.63;3.20;;;;;;;;;;4897583;29;20025;-67
2022/07/09 07:33:07;;;;;;;5.45;3.03;;;;;;;;;;4889166;29;20093;-67
2022/07/09 07:35:33;;;;;;;4.18;2.60;;;;;;;;;;4882772;29;20034;-67
2022/07/09 07:38:01;;;;;;;3.50;2.47;;;;;;;;;;4885727;29;20458;-70
2022/07/09 07:40:26;;;;;;;5.18;3.10;;;;;;;;;;4880171;29;20029;-67
2022/07/09 07:42:52;;;;;;;6.20;2.97;;;;;;;;;;4879013;29;20048;-68
2022/07/09 07:45:17;;;;;;;5.85;3.00;;;;;;;;;;4877501;29;20040;-68
2022/07/09 07:47:42;;;;;;;4.25;2.85;;;;;;;;;;4874661;29;20471;-67
2022/07/09 07:50:08;;;;;;;5.50;2.60;;;;;;;;;;4883439;29;20036;-67
2022/07/09 07:52:33;;;;;;;4.78;2.55;;;;;;;;;;4878183;29;20061;-68
2022/07/09 07:54:59;;;;;;;4.97;2.72;;;;;;;;;;4877068;29;20067;-67
2022/07/09 07:57:24;;;;;;;5.18;3.00;;;;;;;;;;4880878;29;20028;-67
2022/07/09 07:59:50;;;;;;;4.03;2.67;;;;;;;;;;4883917;29;20037;-67
2022/07/09 08:02:15;;;;;;;4.95;2.75;;;;;;;;;;4880861;29;20381;-68
2022/07/09 08:04:40;;;;;;;5.75;2.72;;;;;;;;;;4898208;29;20147;-69
2022/07/09 08:07:06;;;;;;;4.75;2.95;;;;;;;;;;4883294;29;20485;-68
2022/07/09 08:09:33;;;;;;;4.35;2.60;;;;;;;;;;4899899;29;20506;-67
2022/07/09 08:11:59;;;;;;;5.57;2.28;;;;;;;;;;4891970;29;20037;-66
2022/07/09 08:14:24;;;;;;;3.42;1.80;;;;;;;;;;4897583;29;20055;-66
2022/07/09 08:16:50;;;;;;;5.53;2.00;;;;;;;;;;4885987;29;20037;-67
2022/07/09 08:19:15;;;;;;;3.90;2.20;;;;;;;;;;4898518;29;20151;-66
2022/07/09 08:21:41;;;;;;;3.95;2.10;;;;;;;;;;4897552;29;20032;-66
2022/07/09 08:24:07;;;;;;;5.40;2.17;;;;;;;;;;4876155;29;20045;-68
2022/07/09 08:26:33;;;;;;;3.22;2.08;;;;;;;;;;4898824;29;20458;-68
2022/07/09 08:28:58;;;;;;;3.85;1.92;;;;;;;;;;4896715;29;20120;-68
2022/07/09 08:31:24;;;;;;;2.72;1.80;;;;;;;;;;4898693;29;20036;-66
2022/07/09 08:33:50;;;;;;;2.70;1.73;;;;;;;;;;4891242;29;20100;-67
2022/07/09 08:36:16;;;;;;;3.22;1.80;;;;;;;;;;4889301;29;20036;-66
2022/07/09 08:38:42;;;;;;;3.78;1.77;;;;;;;;;;4880532;29;20037;-66
2022/07/09 08:41:08;;;;;;;4.43;1.80;;;;;;;;;;4880874;29;20036;-68
2022/07/09 08:43:36;;;;;;;2.30;1.70;;;;;;;;;;4899178;29;20396;-67
2022/07/09 08:46:02;;;;;;;3.90;1.90;;;;;;;;;;4878179;29;20111;-66
2022/07/09 08:48:28;;;;;;;4.05;1.70;;;;;;;;;;4895434;29;20119;-67
2022/07/09 08:50:55;;;;;;;3.40;1.60;;;;;;;;;;4886121;29;20097;-67
2022/07/09 08:53:20;;;;;;;3.47;1.90;;;;;;;;;;4894413;29;20078;-67
2022/07/09 08:55:45;;;;;;;4.25;2.00;;;;;;;;;;4897685;29;20032;-68
2022/07/09 08:58:14;;;;;;;2.95;1.75;;;;;;;;;;4894204;29;20397;-69
2022/07/09 09:00:41;;;;;;;3.95;1.90;;;;;;;;;;4893012;29;20036;-67
2022/07/09 09:03:07;;;;;;;2.92;1.80;;;;;;;;;;4888980;29;20068;-69
2022/07/09 09:05:32;;;;;;;3.58;1.80;;;;;;;;;;4893334;29;20120;-67
2022/07/09 09:07:58;;;;;;;2.00;1.50;;;;;;;;;;4867698;29;20119;-68
2022/07/09 09:10:26;;;;;;;5.38;1.60;;;;;;;;;;4880701;29;20032;-67
2022/07/09 09:12:59;;;;;;;1.58;1.30;;;;;;;;;;4882884;29;20482;-68
2022/07/09 09:15:25;;;;;;;2.05;1.40;;;;;;;;;;4892987;29;20122;-67
2022/07/09 09:17:51;;;;;;;2.33;1.63;;;;;;;;;;4892503;29;20035;-68
2022/07/09 09:20:17;;;;;;;2.83;1.50;;;;;;;;;;4896264;29;20410;-68
2022/07/09 09:22:49;;;;;;;2.42;1.45;;;;;;;;;;4863274;29;20048;-66
2022/07/09 09:25:21;;;;;;;2.55;1.60;;;;;;;;;;4862407;29;20455;-67
2022/07/09 09:27:56;;;;;;;4.25;1.70;;;;;;;;;;4889907;29;20044;-67
2022/07/09 09:30:23;;;;;;;1.73;1.10;;;;;;;;;;4893200;29;20036;-68
2022/07/09 09:32:58;;;;;;;1.92;1.20;;;;;;;;;;4894058;29;20033;-67
2022/07/09 09:35:27;;;;;;;6.07;1.27;;;;;;;;;;4897049;29;20035;-65
2022/07/09 09:37:55;;;;;;;4.32;1.40;;;;;;;;;;4896451;29;20112;-65
2022/07/09 09:40:20;;;;;;;3.35;1.40;;;;;;;;;;4897368;29;20032;-66
2022/07/09 09:42:47;;;;;;;1.95;1.10;;;;;;;;;;4877967;29;20035;-67
2022/07/09 09:45:14;;;;;;;1.85;1.30;;;;;;;;;;4890090;29;20088;-67
2022/07/09 09:47:45;;;;;;;2.78;1.65;;;;;;;;;;4896466;29;20067;-66
2022/07/09 09:50:15;;;;;;;4.13;1.50;;;;;;;;;;4892803;29;20062;-67
2022/07/09 09:52:41;;;;;;;3.53;1.40;;;;;;;;;;4883477;29;20128;-67
2022/07/09 09:55:07;;;;;;;3.47;1.50;;;;;;;;;;4878766;29;20120;-69
2022/07/09 09:57:34;;;;;;;3.08;1.58;;;;;;;;;;4879208;29;20363;-68
2022/07/09 10:00:00;;;;;;;2.90;1.70;;;;;;;;;;4878209;29;20079;-66
2022/07/09 10:02:27;;;;;;;3.75;2.22;;;;;;;;;;4859917;29;20383;-64
2022/07/09 10:04:53;;;;;;;3.80;1.92;;;;;;;;;;4877770;29;20165;-64
2022/07/09 10:07:19;;;;;;;3.75;2.08;;;;;;;;;;4894045;29;20490;-64
2022/07/09 10:09:56;;;;;;;3.70;1.90;;;;;;;;;;4877703;29;20037;-64
2022/07/09 10:12:40;;;;;;;4.03;2.13;;;;;;;;;;4895529;29;20079;-64
2022/07/09 10:15:21;;;;;;;4.18;2.10;;;;;;;;;;4890853;29;20044;-63
2022/07/09 10:17:46;;;;;;;3.35;1.92;;;;;;;;;;4878221;29;20064;-63
2022/07/09 10:20:12;;;;;;;3.90;2.03;;;;;;;;;;4877669;29;20060;-65
2022/07/09 10:22:39;;;;;;;2.75;1.92;;;;;;;;;;4884606;29;20465;-64
2022/07/09 10:25:05;;;;;;;3.20;2.00;;;;;;;;;;4886379;29;20406;-65
2022/07/09 10:27:41;;;;;;;3.78;2.13;;;;;;;;;;4891591;29;20035;-64
2022/07/09 10:30:08;;;;;;;3.05;1.70;;;;;;;;;;4890745;29;20359;-64
2022/07/09 10:32:35;;;;;;;3.30;1.90;;;;;;;;;;4878489;29;20036;-65
2022/07/09 10:35:03;;;;;;;3.65;2.08;;;;;;;;;;4895166;29;20055;-64
2022/07/09 10:37:38;;;;;;;2.97;1.60;;;;;;;;;;4878499;29;20029;-64
2022/07/09 10:40:14;;;;;;;3.13;1.75;;;;;;;;;;4877296;29;20482;-64
2022/07/09 10:42:41;;;;;;;3.55;1.55;;;;;;;;;;4866354;29;20069;-64
2022/07/09 10:45:18;;;;;;;3.97;1.80;;;;;;;;;;4895875;29;20032;-64
2022/07/09 10:47:46;;;;;;;3.90;1.73;;;;;;;;;;4882153;29;20116;-64
2022/07/09 10:50:12;;;;;;;6.53;1.70;;;;;;;;;;4877874;29;20071;-65
2022/07/09 10:52:38;;;;;;;3.75;2.00;;;;;;;;;;4868780;29;20134;-64
2022/07/09 10:55:03;;;;;;;5.03;1.95;;;;;;;;;;4880426;29;20043;-64
2022/07/09 10:57:29;;;;;;;3.97;1.90;;;;;;;;;;4889993;29;20032;-64
2022/07/09 10:59:54;;;;;;;3.85;1.90;;;;;;;;;;4896700;29;20545;-68
2022/07/09 11:02:21;;;;;;;3.60;2.10;;;;;;;;;;4877480;29;20036;-68
2022/07/09 11:04:51;;;;;;;3.40;2.00;;;;;;;;;;4896839;29;20032;-68
2022/07/09 11:07:25;;;;;;;3.60;1.70;;;;;;;;;;4888767;29;20487;-68
2022/07/09 11:09:52;;;;;;;3.35;1.92;;;;;;;;;;4877198;29;20056;-68
2022/07/09 11:12:19;;;;;;;3.35;2.00;;;;;;;;;;4877136;29;20033;-68
2022/07/09 11:14:46;;;;;;;5.38;2.30;;;;;;;;;;4888579;29;20139;-68
2022/07/09 11:17:15;;;;;;;3.58;2.00;;;;;;;;;;4888456;29;20399;-68
2022/07/09 11:19:41;;;;;;;2.28;1.77;;;;;;;;;;4893032;29;20043;-68
2022/07/09 11:22:07;;;;;;;3.17;2.00;;;;;;;;;;4859809;29;20037;-69
2022/07/09 11:24:32;;;;;;;3.10;1.75;;;;;;;;;;4883208;29;20063;-68
2022/07/09 11:27:02;;;;;;;3.80;1.70;;;;;;;;;;4896416;29;20063;-68
2022/07/09 11:29:28;;;;;;;3.38;1.90;;;;;;;;;;4880286;29;20107;-68
2022/07/09 11:31:53;;;;;;;3.42;2.20;;;;;;;;;;4892773;29;20115;-68
2022/07/09 11:34:20;;;;;;;4.20;1.98;;;;;;;;;;4891231;29;20037;-68
2022/07/09 11:36:50;;;;;;;4.25;2.13;;;;;;;;;;4888905;29;20517;-67
2022/07/09 11:39:29;;;;;;;2.67;1.85;;;;;;;;;;4894551;29;20041;-67
2022/07/09 11:41:56;;;;;;;4.38;1.73;;;;;;;;;;4865196;29;20177;-67
2022/07/09 11:44:24;;;;;;;2.80;1.90;;;;;;;;;;4883494;29;20044;-67
2022/07/09 11:47:10;;;;;;;3.72;1.80;;;;;;;;;;4884517;29;20037;-67
2022/07/09 11:49:44;;;;;;;2.53;2.00;;;;;;;;;;4879680;29;20120;-67
2022/07/09 11:52:21;;;;;;;3.65;2.00;;;;;;;;;;4877976;29;20049;-69
2022/07/09 11:55:04;;;;;;;2.83;1.80;;;;;;;;;;4881057;29;20045;-69
2022/07/09 11:57:32;;;;;;;2.45;1.90;;;;;;;;;;4889299;29;20033;-68
2022/07/09 11:59:58;;;;;;;5.28;2.40;;;;;;;;;;4888282;29;20037;-67
2022/07/09 12:02:23;;;;;;;3.25;2.15;;;;;;;;;;4897433;29;20039;-68
2022/07/09 12:04:49;;;;;;;3.90;2.42;;;;;;;;;;4899008;29;20036;-68
2022/07/09 12:07:14;;;;;;;4.50;2.38;;;;;;;;;;4863871;29;20108;-69
2022/07/09 12:09:39;;;;;;;4.05;2.42;;;;;;;;;;4886791;29;20390;-66
2022/07/09 12:12:05;;;;;;;3.92;2.40;;;;;;;;;;4891831;29;20384;-67
2022/07/09 12:14:31;;;;;;;4.70;2.80;;;;;;;;;;4886259;29;20367;-68
2022/07/09 12:16:57;;;;;;;3.60;2.63;;;;;;;;;;4899388;29;20377;-68
2022/07/09 12:19:23;;;;;;;3.50;2.60;;;;;;;;;;4885553;29;20041;-68
2022/07/09 12:21:48;;;;;;;6.13;3.00;;;;;;;;;;4890259;29;20047;-68
2022/07/09 12:24:14;;;;;;;5.28;2.60;;;;;;;;;;4880912;29;20033;-68
2022/07/09 12:26:39;;;;;;;5.95;2.85;;;;;;;;;;4878856;29;20167;-67
2022/07/09 12:29:04;;;;;;;4.47;2.85;;;;;;;;;;4897164;29;20033;-68
2022/07/09 12:31:30;;;;;;;4.57;2.70;;;;;;;;;;4867983;29;20480;-68
2022/07/09 12:33:55;;;;;;;4.53;2.80;;;;;;;;;;4890213;29;20062;-69
2022/07/09 12:36:21;;;;;;;4.07;2.90;;;;;;;;;;4896420;29;20039;-69
2022/07/09 12:38:46;;;;;;;7.05;2.85;;;;;;;;;;4874949;29;20085;-62
2022/07/09 12:41:12;;;;;;;3.58;3.10;;;;;;;;;;4880486;29;20355;-65
2022/07/09 12:43:37;;;;;;;7.72;4.20;;;;;;;;;;4885599;29;20119;-64
2022/07/09 12:46:03;;;;;;;8.43;5.30;;;;;;;;;;4894364;29;20104;-62
2022/07/09 12:48:28;;;;;;;9.50;5.93;;;;;;;;;;4883884;29;20032;-63
2022/07/09 12:50:53;;;;;;;9.98;6.88;;;;;;;;;;4876260;29;20028;-62
2022/07/09 12:53:19;;;;;;;10.15;7.25;;;;;;;;;;4884013;29;20211;-62
2022/07/09 12:55:44;;;;;;;13.90;8.25;;;;;;;;;;4884057;29;20044;-61
2022/07/09 12:58:10;;;;;;;12.32;8.75;;;;;;;;;;4882375;29;20049;-62
2022/07/09 13:00:35;;;;;;;16.67;10.05;;;;;;;;;;4879572;29;20041;-63
2022/07/09 13:03:01;;;;;;;15.20;11.98;;;;;;;;;;4880003;29;20033;-62
2022/07/09 13:05:26;;;;;;;18.95;13.13;;;;;;;;;;4877620;29;20033;-62
2022/07/09 13:07:51;;;;;;;18.00;13.25;;;;;;;;;;4879690;29;20123;-62
2022/07/09 13:10:17;;;;;;;16.48;12.68;;;;;;;;;;4877077;29;20071;-62
2022/07/09 13:12:42;;;;;;;19.83;14.15;;;;;;;;;;4886728;29;20053;-61
2022/07/09 13:15:08;;;;;;;21.88;14.40;;;;;;;;;;4879954;29;20116;-63
2022/07/09 13:17:33;;;;;;;23.23;15.23;;;;;;;;;;4887925;29;20028;-64
2022/07/09 13:19:59;;;;;;;22.88;16.02;;;;;;;;;;4897760;29;20457;-63
2022/07/09 13:22:25;;;;;;;31.40;18.25;;;;;;;;;;4885883;29;20056;-64
2022/07/09 13:24:50;;;;;;;28.73;17.55;;;;;;;;;;4898658;29;20033;-64
2022/07/09 13:27:18;;;;;;;26.25;17.15;;;;;;;;;;4892903;29;20032;-63
2022/07/09 13:29:44;;;;;;;32.15;20.23;;;;;;;;;;4887406;29;20115;-62
2022/07/09 13:32:09;;;;;;;20.92;15.93;;;;;;;;;;4897997;29;20114;-63
2022/07/09 13:34:35;;;;;;;14.52;12.60;;;;;;;;;;4895201;29;20040;-64
2022/07/09 13:37:01;;;;;;;12.60;10.18;;;;;;;;;;4894148;29;20044;-62
2022/07/09 13:39:26;;;;;;;11.35;8.63;;;;;;;;;;4878302;29;20033;-63
2022/07/09 13:41:51;;;;;;;9.13;7.40;;;;;;;;;;4884773;29;20068;-63
2022/07/09 13:44:17;;;;;;;10.50;6.95;;;;;;;;;;4897327;29;20071;-63
2022/07/09 13:46:42;;;;;;;11.98;7.15;;;;;;;;;;4892603;29;20068;-65
2022/07/09 13:49:08;;;;;;;8.38;6.30;;;;;;;;;;4897243;29;20039;-64
2022/07/09 13:51:33;;;;;;;10.85;6.55;;;;;;;;;;4892693;29;20097;-64
2022/07/09 13:53:59;;;;;;;8.57;5.72;;;;;;;;;;4885690;29;20041;-63
2022/07/09 13:56:24;;;;;;;7.15;5.63;;;;;;;;;;4878541;29;20033;-63
2022/07/09 13:58:50;;;;;;;10.57;6.43;;;;;;;;;;4897895;29;20088;-64
2022/07/09 14:01:15;;;;;;;7.82;5.38;;;;;;;;;;4884708;29;20037;-62
2022/07/09 14:03:42;;;;;;;7.88;4.82;;;;;;;;;;4877955;29;20635;-62
2022/07/09 14:06:07;;;;;;;7.45;4.20;;;;;;;;;;4878855;29;20382;-62
2022/07/09 14:08:33;;;;;;;3.95;2.55;;;;;;;;;;4878345;29;20044;-62
2022/07/09 14:10:58;;;;;;;3.97;2.60;;;;;;;;;;4879110;29;20036;-62
2022/07/09 14:13:25;;;;;;;1.92;1.65;;;;;;;;;;4860952;29;20033;-62
2022/07/09 14:15:53;;;;;;;3.72;1.98;;;;;;;;;;4879081;29;20037;-61
2022/07/09 14:18:18;;;;;;;3.17;1.60;;;;;;;;;;4879240;29;20138;-61
2022/07/09 14:20:44;;;;;;;5.85;1.70;;;;;;;;;;4882179;29;20151;-60
2022/07/09 14:23:09;;;;;;;2.25;1.70;;;;;;;;;;4895121;29;20041;-60
2022/07/09 14:25:34;;;;;;;1.98;1.52;;;;;;;;;;4894809;29;20119;-60
2022/07/09 14:28:00;;;;;;;2.30;1.30;;;;;;;;;;4890983;29;20121;-60
2022/07/09 14:30:25;;;;;;;3.80;1.50;;;;;;;;;;4886321;29;20039;-60
2022/07/09 14:32:51;;;;;;;2.05;1.50;;;;;;;;;;4873930;29;20062;-60